sensor_id;sensor_type;location;lat;lon;timestamp;P1;durP1;ratioP1;P2;durP2;ratioP2
57191;SDS011;43052;52.588;13.396;2022-11-18T00:00:23;31.73;;;19.67;;
57191;SDS011;43052;52.588;13.396;2022-11-18T00:02:49;29.23;;;19.90;;
57191;SDS011;43052;52.588;13.396;2022-11-18T00:05:14;29.08;;;21.70;;
57191;SDS011;43052;52.588;13.396;2022-11-18T00:07:39;30.63;;;21.40;;
57191;SDS011;43052;52.588;13.396;2022-11-18T00:10:04;29.73;;;21.63;;
57191;SDS011;43052;52.588;13.396;2022-11-18T00:12:30;32.55;;;20.88;;
57191;SDS011;43052;52.588;13.396;2022-11-18T00:15:14;32.03;;;20.80;;
57191;SDS011;43052;52.588;13.396;2022-11-18T00:17:39;30.92;;;21.08;;
57191;SDS011;43052;52.588;13.396;2022-11-18T00:20:05;30.90;;;19.92;;
57191;SDS011;43052;52.588;13.396;2022-11-18T00:22:30;28.77;;;19.88;;
57191;SDS011;43052;52.588;13.396;2022-11-18T00:24:55;29.38;;;20.17;;
57191;SDS011;43052;52.588;13.396;2022-11-18T00:27:21;29.15;;;20.67;;
57191;SDS011;43052;52.588;13.396;2022-11-18T00:29:46;27.98;;;21.20;;
57191;SDS011;43052;52.588;13.396;2022-11-18T00:32:11;29.52;;;21.85;;
57191;SDS011;43052;52.588;13.396;2022-11-18T00:34:36;31.83;;;21.00;;
57191;SDS011;43052;52.588;13.396;2022-11-18T00:37:02;28.80;;;19.77;;
57191;SDS011;43052;52.588;13.396;2022-11-18T00:39:27;29.27;;;19.45;;
57191;SDS011;43052;52.588;13.396;2022-11-18T00:41:52;29.65;;;20.10;;
57191;SDS011;43052;52.588;13.396;2022-11-18T00:44:36;28.02;;;21.05;;
57191;SDS011;43052;52.588;13.396;2022-11-18T00:47:01;28.38;;;19.33;;
57191;SDS011;43052;52.588;13.396;2022-11-18T00:49:27;30.77;;;20.90;;
57191;SDS011;43052;52.588;13.396;2022-11-18T00:51:52;27.02;;;20.73;;
57191;SDS011;43052;52.588;13.396;2022-11-18T00:54:17;29.23;;;20.88;;
57191;SDS011;43052;52.588;13.396;2022-11-18T00:56:43;32.10;;;21.38;;
57191;SDS011;43052;52.588;13.396;2022-11-18T00:59:08;30.00;;;19.33;;
57191;SDS011;43052;52.588;13.396;2022-11-18T01:01:33;30.30;;;20.70;;
57191;SDS011;43052;52.588;13.396;2022-11-18T01:03:59;30.17;;;21.73;;
57191;SDS011;43052;52.588;13.396;2022-11-18T01:06:25;28.33;;;19.90;;
57191;SDS011;43052;52.588;13.396;2022-11-18T01:08:50;31.38;;;20.55;;
57191;SDS011;43052;52.588;13.396;2022-11-18T01:11:16;31.73;;;20.83;;
57191;SDS011;43052;52.588;13.396;2022-11-18T01:13:59;32.25;;;22.38;;
57191;SDS011;43052;52.588;13.396;2022-11-18T01:16:25;27.92;;;19.48;;
57191;SDS011;43052;52.588;13.396;2022-11-18T01:18:52;28.23;;;20.35;;
57191;SDS011;43052;52.588;13.396;2022-11-18T01:21:17;28.73;;;20.38;;
57191;SDS011;43052;52.588;13.396;2022-11-18T01:23:43;29.55;;;20.90;;
57191;SDS011;43052;52.588;13.396;2022-11-18T01:26:10;31.05;;;22.88;;
57191;SDS011;43052;52.588;13.396;2022-11-18T01:28:36;31.05;;;22.13;;
57191;SDS011;43052;52.588;13.396;2022-11-18T01:31:03;30.27;;;22.20;;
57191;SDS011;43052;52.588;13.396;2022-11-18T01:33:30;31.08;;;22.35;;
57191;SDS011;43052;52.588;13.396;2022-11-18T01:35:55;30.45;;;19.67;;
57191;SDS011;43052;52.588;13.396;2022-11-18T01:38:21;31.33;;;21.02;;
57191;SDS011;43052;52.588;13.396;2022-11-18T01:40:46;29.92;;;22.05;;
57191;SDS011;43052;52.588;13.396;2022-11-18T01:43:11;29.13;;;20.55;;
57191;SDS011;43052;52.588;13.396;2022-11-18T01:45:41;31.48;;;22.50;;
57191;SDS011;43052;52.588;13.396;2022-11-18T01:48:08;29.70;;;19.25;;
57191;SDS011;43052;52.588;13.396;2022-11-18T01:50:38;31.50;;;23.15;;
57191;SDS011;43052;52.588;13.396;2022-11-18T01:53:10;32.25;;;21.75;;
57191;SDS011;43052;52.588;13.396;2022-11-18T01:55:40;32.35;;;22.33;;
57191;SDS011;43052;52.588;13.396;2022-11-18T01:58:11;32.85;;;23.70;;
57191;SDS011;43052;52.588;13.396;2022-11-18T02:00:42;30.23;;;21.63;;
57191;SDS011;43052;52.588;13.396;2022-11-18T02:03:07;31.45;;;20.63;;
57191;SDS011;43052;52.588;13.396;2022-11-18T02:05:33;27.20;;;18.65;;
57191;SDS011;43052;52.588;13.396;2022-11-18T02:08:00;29.23;;;22.30;;
57191;SDS011;43052;52.588;13.396;2022-11-18T02:10:26;30.20;;;19.88;;
57191;SDS011;43052;52.588;13.396;2022-11-18T02:12:52;30.98;;;22.30;;
57191;SDS011;43052;52.588;13.396;2022-11-18T02:15:22;29.55;;;19.33;;
57191;SDS011;43052;52.588;13.396;2022-11-18T02:20:38;32.78;;;22.48;;
57191;SDS011;43052;52.588;13.396;2022-11-18T02:23:20;32.40;;;23.83;;
57191;SDS011;43052;52.588;13.396;2022-11-18T02:26:32;31.98;;;24.65;;
57191;SDS011;43052;52.588;13.396;2022-11-18T02:29:14;31.15;;;23.85;;
57191;SDS011;43052;52.588;13.396;2022-11-18T02:34:35;31.65;;;24.70;;
57191;SDS011;43052;52.588;13.396;2022-11-18T02:37:07;32.25;;;24.40;;
57191;SDS011;43052;52.588;13.396;2022-11-18T02:39:58;32.03;;;23.65;;
57191;SDS011;43052;52.588;13.396;2022-11-18T02:42:29;34.33;;;24.00;;
57191;SDS011;43052;52.588;13.396;2022-11-18T02:44:58;31.23;;;23.23;;
57191;SDS011;43052;52.588;13.396;2022-11-18T02:47:28;34.55;;;26.50;;
57191;SDS011;43052;52.588;13.396;2022-11-18T02:49:58;31.85;;;24.00;;
57191;SDS011;43052;52.588;13.396;2022-11-18T02:52:28;34.28;;;25.02;;
57191;SDS011;43052;52.588;13.396;2022-11-18T02:54:56;32.17;;;25.10;;
57191;SDS011;43052;52.588;13.396;2022-11-18T02:57:24;32.05;;;23.92;;
57191;SDS011;43052;52.588;13.396;2022-11-18T02:59:52;31.05;;;23.70;;
57191;SDS011;43052;52.588;13.396;2022-11-18T03:02:18;31.17;;;23.65;;
57191;SDS011;43052;52.588;13.396;2022-11-18T03:04:45;33.80;;;25.67;;
57191;SDS011;43052;52.588;13.396;2022-11-18T03:07:14;33.00;;;23.13;;
57191;SDS011;43052;52.588;13.396;2022-11-18T03:12:18;30.52;;;20.13;;
57191;SDS011;43052;52.588;13.396;2022-11-18T03:17:40;34.97;;;23.60;;
57191;SDS011;43052;52.588;13.396;2022-11-18T03:20:09;35.88;;;24.65;;
57191;SDS011;43052;52.588;13.396;2022-11-18T03:22:47;35.95;;;27.70;;
57191;SDS011;43052;52.588;13.396;2022-11-18T03:25:20;32.40;;;24.75;;
57191;SDS011;43052;52.588;13.396;2022-11-18T03:27:55;34.88;;;23.40;;
57191;SDS011;43052;52.588;13.396;2022-11-18T03:30:34;33.42;;;23.52;;
57191;SDS011;43052;52.588;13.396;2022-11-18T03:33:07;35.28;;;26.45;;
57191;SDS011;43052;52.588;13.396;2022-11-18T03:35:36;35.78;;;25.23;;
57191;SDS011;43052;52.588;13.396;2022-11-18T03:38:06;37.53;;;25.13;;
57191;SDS011;43052;52.588;13.396;2022-11-18T03:40:35;39.03;;;25.60;;
57191;SDS011;43052;52.588;13.396;2022-11-18T03:43:06;38.38;;;26.65;;
57191;SDS011;43052;52.588;13.396;2022-11-18T03:45:36;38.80;;;26.65;;
57191;SDS011;43052;52.588;13.396;2022-11-18T03:48:16;36.77;;;24.47;;
57191;SDS011;43052;52.588;13.396;2022-11-18T03:50:50;39.03;;;24.85;;
57191;SDS011;43052;52.588;13.396;2022-11-18T03:53:20;41.30;;;25.65;;
57191;SDS011;43052;52.588;13.396;2022-11-18T03:55:50;39.63;;;26.25;;
57191;SDS011;43052;52.588;13.396;2022-11-18T04:00:59;41.63;;;26.80;;
57191;SDS011;43052;52.588;13.396;2022-11-18T04:03:28;41.03;;;25.60;;
57191;SDS011;43052;52.588;13.396;2022-11-18T04:05:57;41.70;;;29.42;;
57191;SDS011;43052;52.588;13.396;2022-11-18T04:10:59;42.65;;;27.55;;
57191;SDS011;43052;52.588;13.396;2022-11-18T04:13:29;44.42;;;27.85;;
57191;SDS011;43052;52.588;13.396;2022-11-18T04:15:58;43.75;;;26.40;;
57191;SDS011;43052;52.588;13.396;2022-11-18T04:18:24;46.88;;;31.55;;
57191;SDS011;43052;52.588;13.396;2022-11-18T04:20:50;43.10;;;25.65;;
57191;SDS011;43052;52.588;13.396;2022-11-18T04:23:15;45.08;;;29.33;;
57191;SDS011;43052;52.588;13.396;2022-11-18T04:25:40;47.08;;;29.48;;
57191;SDS011;43052;52.588;13.396;2022-11-18T04:28:05;46.72;;;29.02;;
57191;SDS011;43052;52.588;13.396;2022-11-18T04:30:31;45.20;;;28.30;;
57191;SDS011;43052;52.588;13.396;2022-11-18T04:32:57;47.20;;;30.02;;
57191;SDS011;43052;52.588;13.396;2022-11-18T04:35:22;46.97;;;27.92;;
57191;SDS011;43052;52.588;13.396;2022-11-18T04:37:48;45.85;;;28.98;;
57191;SDS011;43052;52.588;13.396;2022-11-18T04:40:13;47.45;;;33.33;;
57191;SDS011;43052;52.588;13.396;2022-11-18T04:42:38;49.88;;;28.65;;
57191;SDS011;43052;52.588;13.396;2022-11-18T04:45:04;43.38;;;26.42;;
57191;SDS011;43052;52.588;13.396;2022-11-18T04:47:30;44.47;;;27.48;;
57191;SDS011;43052;52.588;13.396;2022-11-18T04:49:55;45.75;;;27.05;;
57191;SDS011;43052;52.588;13.396;2022-11-18T04:52:20;44.42;;;27.27;;
57191;SDS011;43052;52.588;13.396;2022-11-18T04:54:45;47.90;;;28.83;;
57191;SDS011;43052;52.588;13.396;2022-11-18T04:57:11;47.45;;;29.60;;
57191;SDS011;43052;52.588;13.396;2022-11-18T04:59:36;44.72;;;28.13;;
57191;SDS011;43052;52.588;13.396;2022-11-18T05:02:02;45.70;;;27.55;;
57191;SDS011;43052;52.588;13.396;2022-11-18T05:04:28;42.25;;;26.55;;
57191;SDS011;43052;52.588;13.396;2022-11-18T05:06:55;45.38;;;27.70;;
57191;SDS011;43052;52.588;13.396;2022-11-18T05:09:21;46.70;;;29.60;;
57191;SDS011;43052;52.588;13.396;2022-11-18T05:11:47;44.25;;;25.58;;
57191;SDS011;43052;52.588;13.396;2022-11-18T05:14:31;41.85;;;25.15;;
57191;SDS011;43052;52.588;13.396;2022-11-18T05:16:57;42.53;;;25.42;;
57191;SDS011;43052;52.588;13.396;2022-11-18T05:19:26;40.35;;;28.40;;
57191;SDS011;43052;52.588;13.396;2022-11-18T05:21:52;41.35;;;27.25;;
57191;SDS011;43052;52.588;13.396;2022-11-18T05:24:18;41.80;;;25.33;;
57191;SDS011;43052;52.588;13.396;2022-11-18T05:26:43;43.03;;;26.23;;
57191;SDS011;43052;52.588;13.396;2022-11-18T05:29:08;40.83;;;27.63;;
57191;SDS011;43052;52.588;13.396;2022-11-18T05:31:34;38.65;;;24.52;;
57191;SDS011;43052;52.588;13.396;2022-11-18T05:33:59;42.20;;;26.02;;
57191;SDS011;43052;52.588;13.396;2022-11-18T05:36:25;35.45;;;23.50;;
57191;SDS011;43052;52.588;13.396;2022-11-18T05:38:50;35.72;;;22.77;;
57191;SDS011;43052;52.588;13.396;2022-11-18T05:41:16;37.55;;;24.52;;
57191;SDS011;43052;52.588;13.396;2022-11-18T05:44:02;38.63;;;24.17;;
57191;SDS011;43052;52.588;13.396;2022-11-18T05:46:28;34.78;;;22.70;;
57191;SDS011;43052;52.588;13.396;2022-11-18T05:48:54;36.17;;;24.48;;
57191;SDS011;43052;52.588;13.396;2022-11-18T05:51:19;37.17;;;25.35;;
57191;SDS011;43052;52.588;13.396;2022-11-18T05:53:45;34.47;;;23.08;;
57191;SDS011;43052;52.588;13.396;2022-11-18T05:56:27;34.65;;;21.35;;
57191;SDS011;43052;52.588;13.396;2022-11-18T05:58:53;31.15;;;20.63;;
57191;SDS011;43052;52.588;13.396;2022-11-18T06:01:33;31.58;;;20.90;;
57191;SDS011;43052;52.588;13.396;2022-11-18T06:04:02;28.98;;;19.45;;
57191;SDS011;43052;52.588;13.396;2022-11-18T06:06:33;28.98;;;20.25;;
57191;SDS011;43052;52.588;13.396;2022-11-18T06:09:00;26.70;;;18.55;;
57191;SDS011;43052;52.588;13.396;2022-11-18T06:11:27;30.13;;;20.58;;
57191;SDS011;43052;52.588;13.396;2022-11-18T06:13:57;27.10;;;19.45;;
57191;SDS011;43052;52.588;13.396;2022-11-18T06:16:27;28.90;;;19.08;;
57191;SDS011;43052;52.588;13.396;2022-11-18T06:18:54;26.20;;;20.08;;
57191;SDS011;43052;52.588;13.396;2022-11-18T06:21:20;27.52;;;19.25;;
57191;SDS011;43052;52.588;13.396;2022-11-18T06:23:46;25.95;;;19.65;;
57191;SDS011;43052;52.588;13.396;2022-11-18T06:26:12;28.63;;;19.95;;
57191;SDS011;43052;52.588;13.396;2022-11-18T06:28:39;28.25;;;19.92;;
57191;SDS011;43052;52.588;13.396;2022-11-18T06:31:05;29.48;;;19.58;;
57191;SDS011;43052;52.588;13.396;2022-11-18T06:33:31;24.45;;;16.52;;
57191;SDS011;43052;52.588;13.396;2022-11-18T06:35:56;28.77;;;18.92;;
57191;SDS011;43052;52.588;13.396;2022-11-18T06:38:24;27.75;;;18.80;;
57191;SDS011;43052;52.588;13.396;2022-11-18T06:40:50;29.73;;;20.45;;
57191;SDS011;43052;52.588;13.396;2022-11-18T06:43:16;27.38;;;19.75;;
57191;SDS011;43052;52.588;13.396;2022-11-18T06:46:00;27.60;;;18.77;;
57191;SDS011;43052;52.588;13.396;2022-11-18T06:51:09;27.60;;;18.13;;
57191;SDS011;43052;52.588;13.396;2022-11-18T06:53:35;30.48;;;19.85;;
57191;SDS011;43052;52.588;13.396;2022-11-18T06:56:04;29.33;;;20.83;;
57191;SDS011;43052;52.588;13.396;2022-11-18T06:58:30;29.88;;;21.67;;
57191;SDS011;43052;52.588;13.396;2022-11-18T07:00:56;26.73;;;19.05;;
57191;SDS011;43052;52.588;13.396;2022-11-18T07:03:21;29.40;;;20.20;;
57191;SDS011;43052;52.588;13.396;2022-11-18T07:05:46;29.20;;;19.33;;
57191;SDS011;43052;52.588;13.396;2022-11-18T07:08:12;32.78;;;22.10;;
57191;SDS011;43052;52.588;13.396;2022-11-18T07:10:37;31.70;;;21.00;;
57191;SDS011;43052;52.588;13.396;2022-11-18T07:13:02;32.00;;;21.73;;
57191;SDS011;43052;52.588;13.396;2022-11-18T07:15:27;32.17;;;22.58;;
57191;SDS011;43052;52.588;13.396;2022-11-18T07:17:53;30.98;;;19.55;;
57191;SDS011;43052;52.588;13.396;2022-11-18T07:20:18;28.33;;;19.52;;
57191;SDS011;43052;52.588;13.396;2022-11-18T07:22:43;30.35;;;20.05;;
57191;SDS011;43052;52.588;13.396;2022-11-18T07:25:08;29.75;;;18.40;;
57191;SDS011;43052;52.588;13.396;2022-11-18T07:27:34;31.42;;;22.80;;
57191;SDS011;43052;52.588;13.396;2022-11-18T07:29:59;29.45;;;21.83;;
57191;SDS011;43052;52.588;13.396;2022-11-18T07:32:24;30.45;;;20.88;;
57191;SDS011;43052;52.588;13.396;2022-11-18T07:34:49;28.90;;;20.23;;
57191;SDS011;43052;52.588;13.396;2022-11-18T07:37:14;31.35;;;22.00;;
57191;SDS011;43052;52.588;13.396;2022-11-18T07:39:40;31.58;;;22.15;;
57191;SDS011;43052;52.588;13.396;2022-11-18T07:42:05;28.58;;;20.27;;
57191;SDS011;43052;52.588;13.396;2022-11-18T07:44:30;30.33;;;22.58;;
57191;SDS011;43052;52.588;13.396;2022-11-18T07:46:55;30.75;;;22.45;;
57191;SDS011;43052;52.588;13.396;2022-11-18T07:49:21;31.08;;;20.38;;
57191;SDS011;43052;52.588;13.396;2022-11-18T07:51:46;31.98;;;22.65;;
57191;SDS011;43052;52.588;13.396;2022-11-18T07:54:12;29.15;;;20.95;;
57191;SDS011;43052;52.588;13.396;2022-11-18T07:56:40;29.60;;;21.63;;
57191;SDS011;43052;52.588;13.396;2022-11-18T07:59:05;29.98;;;21.50;;
57191;SDS011;43052;52.588;13.396;2022-11-18T08:01:31;30.63;;;20.70;;
57191;SDS011;43052;52.588;13.396;2022-11-18T08:03:56;30.63;;;21.98;;
57191;SDS011;43052;52.588;13.396;2022-11-18T08:06:30;28.80;;;20.67;;
57191;SDS011;43052;52.588;13.396;2022-11-18T08:08:56;28.90;;;20.65;;
57191;SDS011;43052;52.588;13.396;2022-11-18T08:11:22;30.17;;;21.00;;
57191;SDS011;43052;52.588;13.396;2022-11-18T08:13:47;28.70;;;19.63;;
57191;SDS011;43052;52.588;13.396;2022-11-18T08:16:13;31.02;;;22.77;;
57191;SDS011;43052;52.588;13.396;2022-11-18T08:18:43;30.98;;;23.58;;
57191;SDS011;43052;52.588;13.396;2022-11-18T08:21:09;31.00;;;21.48;;
57191;SDS011;43052;52.588;13.396;2022-11-18T08:23:34;28.90;;;21.10;;
57191;SDS011;43052;52.588;13.396;2022-11-18T08:26:00;28.83;;;21.17;;
57191;SDS011;43052;52.588;13.396;2022-11-18T08:28:27;28.63;;;19.25;;
57191;SDS011;43052;52.588;13.396;2022-11-18T08:30:53;31.88;;;21.85;;
57191;SDS011;43052;52.588;13.396;2022-11-18T08:33:18;29.17;;;21.42;;
57191;SDS011;43052;52.588;13.396;2022-11-18T08:35:43;29.38;;;20.45;;
57191;SDS011;43052;52.588;13.396;2022-11-18T08:38:08;27.80;;;21.40;;
57191;SDS011;43052;52.588;13.396;2022-11-18T08:40:34;28.75;;;20.60;;
57191;SDS011;43052;52.588;13.396;2022-11-18T08:42:59;27.98;;;19.83;;
57191;SDS011;43052;52.588;13.396;2022-11-18T08:45:24;29.33;;;20.73;;
57191;SDS011;43052;52.588;13.396;2022-11-18T08:47:50;30.05;;;20.02;;
57191;SDS011;43052;52.588;13.396;2022-11-18T08:50:15;27.08;;;19.60;;
57191;SDS011;43052;52.588;13.396;2022-11-18T08:52:41;26.67;;;18.95;;
57191;SDS011;43052;52.588;13.396;2022-11-18T08:55:06;24.98;;;15.63;;
57191;SDS011;43052;52.588;13.396;2022-11-18T08:57:32;27.08;;;19.60;;
57191;SDS011;43052;52.588;13.396;2022-11-18T08:59:57;26.77;;;19.23;;
57191;SDS011;43052;52.588;13.396;2022-11-18T09:02:22;30.33;;;19.63;;
57191;SDS011;43052;52.588;13.396;2022-11-18T09:04:49;25.38;;;18.98;;
57191;SDS011;43052;52.588;13.396;2022-11-18T09:07:18;28.30;;;19.85;;
57191;SDS011;43052;52.588;13.396;2022-11-18T09:09:45;26.33;;;17.83;;
57191;SDS011;43052;52.588;13.396;2022-11-18T09:12:10;26.67;;;20.50;;
57191;SDS011;43052;52.588;13.396;2022-11-18T09:14:40;26.45;;;18.88;;
57191;SDS011;43052;52.588;13.396;2022-11-18T09:17:06;27.30;;;18.35;;
57191;SDS011;43052;52.588;13.396;2022-11-18T09:19:31;27.02;;;19.48;;
57191;SDS011;43052;52.588;13.396;2022-11-18T09:21:57;24.48;;;17.10;;
57191;SDS011;43052;52.588;13.396;2022-11-18T09:24:22;24.33;;;18.77;;
57191;SDS011;43052;52.588;13.396;2022-11-18T09:26:47;22.35;;;16.77;;
57191;SDS011;43052;52.588;13.396;2022-11-18T09:29:13;21.17;;;16.02;;
57191;SDS011;43052;52.588;13.396;2022-11-18T09:31:39;22.40;;;17.80;;
57191;SDS011;43052;52.588;13.396;2022-11-18T09:34:04;22.77;;;15.60;;
57191;SDS011;43052;52.588;13.396;2022-11-18T09:36:29;22.33;;;16.75;;
57191;SDS011;43052;52.588;13.396;2022-11-18T09:38:54;18.58;;;13.80;;
57191;SDS011;43052;52.588;13.396;2022-11-18T09:44:14;21.45;;;14.95;;
57191;SDS011;43052;52.588;13.396;2022-11-18T09:46:56;18.52;;;14.27;;
57191;SDS011;43052;52.588;13.396;2022-11-18T09:49:34;20.63;;;14.95;;
57191;SDS011;43052;52.588;13.396;2022-11-18T09:52:02;17.92;;;14.35;;
57191;SDS011;43052;52.588;13.396;2022-11-18T09:54:31;18.02;;;13.43;;
57191;SDS011;43052;52.588;13.396;2022-11-18T09:56:58;20.55;;;15.70;;
57191;SDS011;43052;52.588;13.396;2022-11-18T09:59:26;19.70;;;13.73;;
57191;SDS011;43052;52.588;13.396;2022-11-18T10:01:55;18.10;;;14.30;;
57191;SDS011;43052;52.588;13.396;2022-11-18T10:04:26;19.33;;;14.45;;
57191;SDS011;43052;52.588;13.396;2022-11-18T10:06:52;16.85;;;13.70;;
57191;SDS011;43052;52.588;13.396;2022-11-18T10:09:30;19.05;;;14.00;;
57191;SDS011;43052;52.588;13.396;2022-11-18T10:15:16;15.15;;;12.85;;
57191;SDS011;43052;52.588;13.396;2022-11-18T10:17:57;14.98;;;12.02;;
57191;SDS011;43052;52.588;13.396;2022-11-18T10:20:39;16.95;;;12.85;;
57191;SDS011;43052;52.588;13.396;2022-11-18T10:23:33;13.90;;;10.57;;
57191;SDS011;43052;52.588;13.396;2022-11-18T10:26:05;13.63;;;11.55;;
57191;SDS011;43052;52.588;13.396;2022-11-18T10:28:30;14.18;;;12.52;;
57191;SDS011;43052;52.588;13.396;2022-11-18T10:31:09;16.92;;;13.13;;
57191;SDS011;43052;52.588;13.396;2022-11-18T10:33:35;13.75;;;11.95;;
57191;SDS011;43052;52.588;13.396;2022-11-18T10:36:13;12.63;;;10.80;;
57191;SDS011;43052;52.588;13.396;2022-11-18T10:38:51;13.55;;;11.82;;
57191;SDS011;43052;52.588;13.396;2022-11-18T10:41:30;12.60;;;10.98;;
57191;SDS011;43052;52.588;13.396;2022-11-18T10:44:03;13.38;;;10.90;;
57191;SDS011;43052;52.588;13.396;2022-11-18T10:46:29;13.35;;;11.68;;
57191;SDS011;43052;52.588;13.396;2022-11-18T10:49:07;12.65;;;10.63;;
57191;SDS011;43052;52.588;13.396;2022-11-18T10:51:38;14.75;;;10.75;;
57191;SDS011;43052;52.588;13.396;2022-11-18T10:54:06;13.02;;;11.50;;
57191;SDS011;43052;52.588;13.396;2022-11-18T10:56:52;13.95;;;11.50;;
57191;SDS011;43052;52.588;13.396;2022-11-18T10:59:31;12.07;;;9.30;;
57191;SDS011;43052;52.588;13.396;2022-11-18T11:02:01;10.50;;;7.50;;
57191;SDS011;43052;52.588;13.396;2022-11-18T11:04:37;12.32;;;10.30;;
57191;SDS011;43052;52.588;13.396;2022-11-18T11:07:13;12.02;;;10.73;;
57191;SDS011;43052;52.588;13.396;2022-11-18T11:09:59;12.40;;;9.38;;
57191;SDS011;43052;52.588;13.396;2022-11-18T11:12:24;11.98;;;9.52;;
57191;SDS011;43052;52.588;13.396;2022-11-18T11:14:56;13.05;;;11.20;;
57191;SDS011;43052;52.588;13.396;2022-11-18T11:20:17;14.53;;;10.53;;
57191;SDS011;43052;52.588;13.396;2022-11-18T11:22:45;13.73;;;10.45;;
57191;SDS011;43052;52.588;13.396;2022-11-18T11:27:58;15.95;;;11.75;;
57191;SDS011;43052;52.588;13.396;2022-11-18T11:30:35;14.30;;;10.68;;
57191;SDS011;43052;52.588;13.396;2022-11-18T11:33:13;14.77;;;10.95;;
57191;SDS011;43052;52.588;13.396;2022-11-18T11:35:51;14.90;;;11.02;;
57191;SDS011;43052;52.588;13.396;2022-11-18T11:38:24;13.90;;;11.02;;
57191;SDS011;43052;52.588;13.396;2022-11-18T11:41:05;13.88;;;10.50;;
57191;SDS011;43052;52.588;13.396;2022-11-18T11:43:53;13.63;;;10.18;;
57191;SDS011;43052;52.588;13.396;2022-11-18T11:46:25;14.82;;;11.20;;
57191;SDS011;43052;52.588;13.396;2022-11-18T11:49:16;12.15;;;10.18;;
57191;SDS011;43052;52.588;13.396;2022-11-18T11:51:45;12.10;;;8.32;;
57191;SDS011;43052;52.588;13.396;2022-11-18T11:54:22;11.15;;;9.32;;
57191;SDS011;43052;52.588;13.396;2022-11-18T11:57:07;11.60;;;9.90;;
57191;SDS011;43052;52.588;13.396;2022-11-18T11:59:45;11.52;;;9.68;;
57191;SDS011;43052;52.588;13.396;2022-11-18T12:02:37;10.75;;;9.13;;
57191;SDS011;43052;52.588;13.396;2022-11-18T12:05:15;10.35;;;8.52;;
57191;SDS011;43052;52.588;13.396;2022-11-18T12:07:59;12.52;;;9.25;;
57191;SDS011;43052;52.588;13.396;2022-11-18T12:10:33;12.85;;;8.35;;
57191;SDS011;43052;52.588;13.396;2022-11-18T12:13:12;11.73;;;8.82;;
57191;SDS011;43052;52.588;13.396;2022-11-18T12:16:05;11.13;;;8.90;;
57191;SDS011;43052;52.588;13.396;2022-11-18T12:18:41;12.98;;;9.63;;
57191;SDS011;43052;52.588;13.396;2022-11-18T12:26:45;11.20;;;8.80;;
57191;SDS011;43052;52.588;13.396;2022-11-18T12:31:50;10.95;;;8.95;;
57191;SDS011;43052;52.588;13.396;2022-11-18T12:34:26;12.43;;;9.30;;
57191;SDS011;43052;52.588;13.396;2022-11-18T12:36:55;11.10;;;8.60;;
57191;SDS011;43052;52.588;13.396;2022-11-18T12:44:33;12.38;;;9.55;;
57191;SDS011;43052;52.588;13.396;2022-11-18T12:46:59;11.90;;;8.77;;
57191;SDS011;43052;52.588;13.396;2022-11-18T12:51:51;11.17;;;8.70;;
57191;SDS011;43052;52.588;13.396;2022-11-18T12:54:27;10.85;;;8.70;;
57191;SDS011;43052;52.588;13.396;2022-11-18T12:56:57;10.18;;;7.97;;
57191;SDS011;43052;52.588;13.396;2022-11-18T12:59:41;11.60;;;8.15;;
57191;SDS011;43052;52.588;13.396;2022-11-18T13:04:35;10.23;;;8.05;;
57191;SDS011;43052;52.588;13.396;2022-11-18T13:07:01;10.80;;;8.30;;
57191;SDS011;43052;52.588;13.396;2022-11-18T13:09:28;11.73;;;8.88;;
57191;SDS011;43052;52.588;13.396;2022-11-18T13:12:04;12.23;;;9.45;;
57191;SDS011;43052;52.588;13.396;2022-11-18T13:14:38;12.55;;;9.45;;
57191;SDS011;43052;52.588;13.396;2022-11-18T13:17:28;11.77;;;8.80;;
57191;SDS011;43052;52.588;13.396;2022-11-18T13:20:21;11.80;;;8.70;;
57191;SDS011;43052;52.588;13.396;2022-11-18T13:25:53;11.68;;;9.43;;
57191;SDS011;43052;52.588;13.396;2022-11-18T13:28:37;12.02;;;9.43;;
57191;SDS011;43052;52.588;13.396;2022-11-18T13:31:17;11.85;;;9.35;;
57191;SDS011;43052;52.588;13.396;2022-11-18T13:33:50;11.68;;;9.45;;
57191;SDS011;43052;52.588;13.396;2022-11-18T13:36:16;12.65;;;9.60;;
57191;SDS011;43052;52.588;13.396;2022-11-18T13:38:59;12.52;;;8.73;;
57191;SDS011;43052;52.588;13.396;2022-11-18T13:41:26;12.02;;;8.73;;
57191;SDS011;43052;52.588;13.396;2022-11-18T13:44:16;10.52;;;8.68;;
57191;SDS011;43052;52.588;13.396;2022-11-18T13:46:50;10.23;;;8.82;;
57191;SDS011;43052;52.588;13.396;2022-11-18T13:49:31;11.70;;;8.70;;
57191;SDS011;43052;52.588;13.396;2022-11-18T13:52:09;11.05;;;9.77;;
57191;SDS011;43052;52.588;13.396;2022-11-18T13:54:39;11.13;;;9.35;;
57191;SDS011;43052;52.588;13.396;2022-11-18T13:57:04;10.27;;;8.43;;
57191;SDS011;43052;52.588;13.396;2022-11-18T13:59:30;11.73;;;8.82;;
57191;SDS011;43052;52.588;13.396;2022-11-18T14:01:58;11.35;;;8.95;;
57191;SDS011;43052;52.588;13.396;2022-11-18T14:04:25;11.48;;;8.38;;
57191;SDS011;43052;52.588;13.396;2022-11-18T14:06:53;11.00;;;8.05;;
57191;SDS011;43052;52.588;13.396;2022-11-18T14:09:57;10.65;;;8.23;;
57191;SDS011;43052;52.588;13.396;2022-11-18T14:12:30;10.15;;;8.02;;
57191;SDS011;43052;52.588;13.396;2022-11-18T14:15:14;10.60;;;7.82;;
57191;SDS011;43052;52.588;13.396;2022-11-18T14:17:55;10.82;;;7.40;;
57191;SDS011;43052;52.588;13.396;2022-11-18T14:20:21;9.75;;;8.10;;
57191;SDS011;43052;52.588;13.396;2022-11-18T14:22:52;8.88;;;7.63;;
57191;SDS011;43052;52.588;13.396;2022-11-18T14:27:56;11.02;;;8.63;;
57191;SDS011;43052;52.588;13.396;2022-11-18T14:30:35;9.98;;;8.13;;
57191;SDS011;43052;52.588;13.396;2022-11-18T14:33:09;10.23;;;7.97;;
57191;SDS011;43052;52.588;13.396;2022-11-18T14:35:35;9.50;;;8.20;;
57191;SDS011;43052;52.588;13.396;2022-11-18T14:38:08;9.55;;;7.35;;
57191;SDS011;43052;52.588;13.396;2022-11-18T14:40:37;10.30;;;8.48;;
57191;SDS011;43052;52.588;13.396;2022-11-18T14:43:02;9.95;;;7.93;;
57191;SDS011;43052;52.588;13.396;2022-11-18T14:45:28;9.90;;;8.18;;
57191;SDS011;43052;52.588;13.396;2022-11-18T14:47:53;9.30;;;7.55;;
57191;SDS011;43052;52.588;13.396;2022-11-18T14:50:18;10.18;;;8.68;;
57191;SDS011;43052;52.588;13.396;2022-11-18T14:52:43;11.85;;;8.38;;
57191;SDS011;43052;52.588;13.396;2022-11-18T14:55:09;10.32;;;9.20;;
57191;SDS011;43052;52.588;13.396;2022-11-18T14:57:34;9.75;;;8.00;;
57191;SDS011;43052;52.588;13.396;2022-11-18T15:00:00;10.10;;;7.85;;
57191;SDS011;43052;52.588;13.396;2022-11-18T15:02:25;8.75;;;7.40;;
57191;SDS011;43052;52.588;13.396;2022-11-18T15:04:50;10.40;;;8.05;;
57191;SDS011;43052;52.588;13.396;2022-11-18T15:07:16;11.77;;;8.02;;
57191;SDS011;43052;52.588;13.396;2022-11-18T15:09:42;9.85;;;7.47;;
57191;SDS011;43052;52.588;13.396;2022-11-18T15:12:08;11.18;;;7.90;;
57191;SDS011;43052;52.588;13.396;2022-11-18T15:14:33;10.90;;;8.93;;
57191;SDS011;43052;52.588;13.396;2022-11-18T15:16:59;12.93;;;9.50;;
57191;SDS011;43052;52.588;13.396;2022-11-18T15:19:26;11.38;;;9.15;;